Aérodrome :
LOGIN :

S'inscrire | Disclaimer

   EN    FR    IT 

 










Légende :    VFR   VFR Marginal   IFR   IFR Intensif   IFR Très Intensif
Visi : 
Plafond : 
>= 8 km
>= 3000ft
5 à 8 km
1000 à 3000 ft
1500m à 5 km
500 à 1000 ft
800 à 1500m
200 à 500 ft
< 800m
< 200 ft
Symboles :   Orages  Brouillard  Fortes neiges  Fortes précipitations  Vent > 20 kt
SIGMETs :   Divers  Orages  Givrage  Turbulence  Onde Orograph.  Cendres Volcan.







- Altitude de l'aérodrome : 13 ft
- Code IATA : OST


EBOS - Oostend bruges Int.

DERNIER METAR :
  • 181820Z 35006KT 9999 FEW022 06/03 Q1030 NOSIG

METARs EXPIRÉS :
  • 181750Z 35006KT 9999 FEW022 06/03 Q1030 NOSIG
  • 181720Z 36007KT 9999 FEW021 SCT037 07/04 Q1030 NOSIG
  • 181650Z 36007KT 9999 FEW021 SCT037 07/04 Q1030 NOSIG
  • 181620Z 35006KT 9999 FEW021 07/04 Q1029 NOSIG
  • 181550Z 35007KT 9999 FEW028 07/04 Q1029 NOSIG

TAF TAF EBOS
Valide du 18 à 18h jusqu'au 20 à 00h UTC


181723Z 1818/1924 35010KT 9999 SCT015 SCT030
TEMPO 1900/1910 4000 BR BKN004
PROB30
TEMPO 1903/1908 1200 BCFG
BECMG 1906/1908 29008KT
Pas de NOTAMs connus pour ce terrain.



MET'MAP, la Météo Aéronautique d'un coup d'oeil ! - Copyright ORBIFLY Décembre 2007 - Disclaimer

ORBIFLY MET'MAP TEAM :

Programmation & Développement : Alexandra Zaïnal
Conception & Développement : Baudouin d'Aumeries
Co-Programmation & Développement : Marc-Olivier Méhu
Soutien technique & logistique : Manuel Goepfert

Contact : metmap@orbifly.com




SOURCES & CREDITS :

   NOAA